sensor_id;sensor_type;location;lat;lon;timestamp;P1;durP1;ratioP1;P2;durP2;ratioP2
15102;SDS011;7652;53.584;9.998;2023-05-07T00:02:58;8.10;;;7.30;;
15102;SDS011;7652;53.584;9.998;2023-05-07T00:06:21;7.37;;;6.60;;
15102;SDS011;7652;53.584;9.998;2023-05-07T00:09:43;7.97;;;7.17;;
15102;SDS011;7652;53.584;9.998;2023-05-07T00:13:06;9.07;;;8.00;;
15102;SDS011;7652;53.584;9.998;2023-05-07T00:16:27;9.00;;;7.40;;
15102;SDS011;7652;53.584;9.998;2023-05-07T00:19:49;8.93;;;7.57;;
15102;SDS011;7652;53.584;9.998;2023-05-07T00:23:10;8.63;;;7.73;;
15102;SDS011;7652;53.584;9.998;2023-05-07T00:26:32;9.77;;;7.87;;
15102;SDS011;7652;53.584;9.998;2023-05-07T00:29:54;9.80;;;8.07;;
15102;SDS011;7652;53.584;9.998;2023-05-07T00:33:16;8.33;;;7.30;;
15102;SDS011;7652;53.584;9.998;2023-05-07T00:36:37;8.57;;;7.53;;
15102;SDS011;7652;53.584;9.998;2023-05-07T00:39:58;9.50;;;7.77;;
15102;SDS011;7652;53.584;9.998;2023-05-07T00:43:20;9.67;;;7.80;;
15102;SDS011;7652;53.584;9.998;2023-05-07T00:46:43;7.70;;;6.90;;
15102;SDS011;7652;53.584;9.998;2023-05-07T00:50:08;7.83;;;6.87;;
15102;SDS011;7652;53.584;9.998;2023-05-07T00:53:32;9.23;;;7.43;;
15102;SDS011;7652;53.584;9.998;2023-05-07T00:56:54;8.97;;;7.23;;
15102;SDS011;7652;53.584;9.998;2023-05-07T01:00:17;8.60;;;7.60;;
15102;SDS011;7652;53.584;9.998;2023-05-07T01:03:41;10.13;;;8.50;;
15102;SDS011;7652;53.584;9.998;2023-05-07T01:07:03;9.13;;;8.20;;
15102;SDS011;7652;53.584;9.998;2023-05-07T01:10:26;8.57;;;7.30;;
15102;SDS011;7652;53.584;9.998;2023-05-07T01:13:50;10.53;;;7.57;;
15102;SDS011;7652;53.584;9.998;2023-05-07T01:17:12;8.13;;;7.30;;
15102;SDS011;7652;53.584;9.998;2023-05-07T01:20:35;8.83;;;7.40;;
15102;SDS011;7652;53.584;9.998;2023-05-07T01:23:58;7.97;;;6.93;;
15102;SDS011;7652;53.584;9.998;2023-05-07T01:27:19;6.93;;;6.23;;
15102;SDS011;7652;53.584;9.998;2023-05-07T01:30:41;8.27;;;6.43;;
15102;SDS011;7652;53.584;9.998;2023-05-07T01:34:04;8.57;;;6.87;;
15102;SDS011;7652;53.584;9.998;2023-05-07T01:37:27;8.77;;;6.97;;
15102;SDS011;7652;53.584;9.998;2023-05-07T01:40:50;8.07;;;6.57;;
15102;SDS011;7652;53.584;9.998;2023-05-07T01:44:13;7.20;;;6.50;;
15102;SDS011;7652;53.584;9.998;2023-05-07T01:47:35;7.27;;;6.47;;
15102;SDS011;7652;53.584;9.998;2023-05-07T01:50:57;7.90;;;6.17;;
15102;SDS011;7652;53.584;9.998;2023-05-07T01:54:19;8.67;;;7.07;;
15102;SDS011;7652;53.584;9.998;2023-05-07T01:57:48;8.13;;;6.73;;
15102;SDS011;7652;53.584;9.998;2023-05-07T02:01:09;6.77;;;6.07;;
15102;SDS011;7652;53.584;9.998;2023-05-07T02:04:31;9.07;;;6.40;;
15102;SDS011;7652;53.584;9.998;2023-05-07T02:07:52;7.73;;;6.80;;
15102;SDS011;7652;53.584;9.998;2023-05-07T02:11:14;6.93;;;6.27;;
15102;SDS011;7652;53.584;9.998;2023-05-07T02:14:37;6.17;;;5.57;;
15102;SDS011;7652;53.584;9.998;2023-05-07T02:17:59;8.13;;;7.40;;
15102;SDS011;7652;53.584;9.998;2023-05-07T02:21:21;7.67;;;6.27;;
15102;SDS011;7652;53.584;9.998;2023-05-07T02:24:42;8.00;;;6.53;;
15102;SDS011;7652;53.584;9.998;2023-05-07T02:28:04;6.67;;;5.97;;
15102;SDS011;7652;53.584;9.998;2023-05-07T02:31:27;8.70;;;6.47;;
15102;SDS011;7652;53.584;9.998;2023-05-07T02:34:49;8.53;;;5.90;;
15102;SDS011;7652;53.584;9.998;2023-05-07T02:38:12;7.60;;;6.00;;
15102;SDS011;7652;53.584;9.998;2023-05-07T02:41:33;6.00;;;5.40;;
15102;SDS011;7652;53.584;9.998;2023-05-07T02:44:55;7.40;;;6.00;;
15102;SDS011;7652;53.584;9.998;2023-05-07T02:48:17;6.93;;;6.10;;
15102;SDS011;7652;53.584;9.998;2023-05-07T02:51:39;6.20;;;5.60;;
15102;SDS011;7652;53.584;9.998;2023-05-07T02:55:00;7.50;;;5.93;;
15102;SDS011;7652;53.584;9.998;2023-05-07T02:58:22;7.57;;;6.40;;
15102;SDS011;7652;53.584;9.998;2023-05-07T03:01:43;7.70;;;5.87;;
15102;SDS011;7652;53.584;9.998;2023-05-07T03:05:06;6.90;;;5.77;;
15102;SDS011;7652;53.584;9.998;2023-05-07T03:08:29;7.20;;;6.33;;
15102;SDS011;7652;53.584;9.998;2023-05-07T03:11:51;6.97;;;5.60;;
15102;SDS011;7652;53.584;9.998;2023-05-07T03:15:12;7.20;;;6.50;;
15102;SDS011;7652;53.584;9.998;2023-05-07T03:18:34;8.50;;;7.00;;
15102;SDS011;7652;53.584;9.998;2023-05-07T03:21:57;8.60;;;7.33;;
15102;SDS011;7652;53.584;9.998;2023-05-07T03:25:19;9.87;;;7.27;;
15102;SDS011;7652;53.584;9.998;2023-05-07T03:28:40;7.60;;;6.80;;
15102;SDS011;7652;53.584;9.998;2023-05-07T03:32:01;8.73;;;7.03;;
15102;SDS011;7652;53.584;9.998;2023-05-07T03:35:23;8.37;;;7.17;;
15102;SDS011;7652;53.584;9.998;2023-05-07T03:38:46;9.73;;;6.80;;
15102;SDS011;7652;53.584;9.998;2023-05-07T03:42:07;9.37;;;7.47;;
15102;SDS011;7652;53.584;9.998;2023-05-07T03:45:29;8.00;;;6.60;;
15102;SDS011;7652;53.584;9.998;2023-05-07T03:48:50;9.20;;;6.90;;
15102;SDS011;7652;53.584;9.998;2023-05-07T03:52:12;7.80;;;6.87;;
15102;SDS011;7652;53.584;9.998;2023-05-07T03:55:35;7.73;;;6.93;;
15102;SDS011;7652;53.584;9.998;2023-05-07T03:58:56;7.07;;;6.37;;
15102;SDS011;7652;53.584;9.998;2023-05-07T04:02:18;7.27;;;6.30;;
15102;SDS011;7652;53.584;9.998;2023-05-07T04:05:39;7.27;;;6.50;;
15102;SDS011;7652;53.584;9.998;2023-05-07T04:09:01;7.40;;;6.37;;
15102;SDS011;7652;53.584;9.998;2023-05-07T04:12:24;6.83;;;5.67;;
15102;SDS011;7652;53.584;9.998;2023-05-07T04:15:46;6.30;;;5.70;;
15102;SDS011;7652;53.584;9.998;2023-05-07T04:19:09;7.17;;;6.47;;
15102;SDS011;7652;53.584;9.998;2023-05-07T04:22:30;7.00;;;6.30;;
15102;SDS011;7652;53.584;9.998;2023-05-07T04:25:51;7.17;;;6.43;;
15102;SDS011;7652;53.584;9.998;2023-05-07T04:29:15;8.30;;;6.70;;
15102;SDS011;7652;53.584;9.998;2023-05-07T04:32:37;7.23;;;6.33;;
15102;SDS011;7652;53.584;9.998;2023-05-07T04:36:00;7.20;;;6.50;;
15102;SDS011;7652;53.584;9.998;2023-05-07T04:39:23;8.10;;;6.30;;
15102;SDS011;7652;53.584;9.998;2023-05-07T04:42:45;6.80;;;6.10;;
15102;SDS011;7652;53.584;9.998;2023-05-07T04:46:08;7.13;;;6.03;;
15102;SDS011;7652;53.584;9.998;2023-05-07T04:49:30;6.47;;;5.87;;
15102;SDS011;7652;53.584;9.998;2023-05-07T04:52:51;6.23;;;5.60;;
15102;SDS011;7652;53.584;9.998;2023-05-07T04:56:13;6.70;;;6.07;;
15102;SDS011;7652;53.584;9.998;2023-05-07T04:59:34;6.93;;;6.23;;
15102;SDS011;7652;53.584;9.998;2023-05-07T05:02:57;6.77;;;6.07;;
15102;SDS011;7652;53.584;9.998;2023-05-07T05:06:18;7.20;;;6.03;;
15102;SDS011;7652;53.584;9.998;2023-05-07T05:09:40;6.43;;;5.70;;
15102;SDS011;7652;53.584;9.998;2023-05-07T05:13:01;7.97;;;6.70;;
15102;SDS011;7652;53.584;9.998;2023-05-07T05:16:23;7.90;;;6.33;;
15102;SDS011;7652;53.584;9.998;2023-05-07T05:23:47;7.60;;;6.33;;
15102;SDS011;7652;53.584;9.998;2023-05-07T05:27:08;7.70;;;6.03;;
15102;SDS011;7652;53.584;9.998;2023-05-07T05:30:29;7.37;;;6.53;;
15102;SDS011;7652;53.584;9.998;2023-05-07T05:33:51;7.63;;;6.20;;
15102;SDS011;7652;53.584;9.998;2023-05-07T05:37:14;7.00;;;6.30;;
15102;SDS011;7652;53.584;9.998;2023-05-07T05:40:35;6.97;;;6.27;;
15102;SDS011;7652;53.584;9.998;2023-05-07T05:43:57;6.83;;;6.13;;
15102;SDS011;7652;53.584;9.998;2023-05-07T05:47:18;6.90;;;6.20;;
15102;SDS011;7652;53.584;9.998;2023-05-07T05:50:41;8.43;;;6.63;;
15102;SDS011;7652;53.584;9.998;2023-05-07T05:54:04;7.00;;;6.33;;
15102;SDS011;7652;53.584;9.998;2023-05-07T05:57:25;7.50;;;6.53;;
15102;SDS011;7652;53.584;9.998;2023-05-07T06:00:47;6.53;;;5.90;;
15102;SDS011;7652;53.584;9.998;2023-05-07T06:04:12;8.50;;;7.03;;
15102;SDS011;7652;53.584;9.998;2023-05-07T06:07:33;7.53;;;5.93;;
15102;SDS011;7652;53.584;9.998;2023-05-07T06:10:56;6.97;;;6.27;;
15102;SDS011;7652;53.584;9.998;2023-05-07T06:14:19;6.93;;;5.97;;
15102;SDS011;7652;53.584;9.998;2023-05-07T06:17:40;7.13;;;6.43;;
15102;SDS011;7652;53.584;9.998;2023-05-07T06:21:02;7.20;;;5.87;;
15102;SDS011;7652;53.584;9.998;2023-05-07T06:24:23;6.60;;;5.90;;
15102;SDS011;7652;53.584;9.998;2023-05-07T06:27:46;7.10;;;5.43;;
15102;SDS011;7652;53.584;9.998;2023-05-07T06:31:11;7.67;;;5.87;;
15102;SDS011;7652;53.584;9.998;2023-05-07T06:34:33;9.70;;;5.83;;
15102;SDS011;7652;53.584;9.998;2023-05-07T06:37:55;7.07;;;6.37;;
15102;SDS011;7652;53.584;9.998;2023-05-07T06:41:16;6.00;;;5.40;;
15102;SDS011;7652;53.584;9.998;2023-05-07T06:44:39;6.80;;;5.80;;
15102;SDS011;7652;53.584;9.998;2023-05-07T06:48:00;6.63;;;5.93;;
15102;SDS011;7652;53.584;9.998;2023-05-07T06:51:22;7.00;;;5.90;;
15102;SDS011;7652;53.584;9.998;2023-05-07T06:54:44;6.73;;;5.80;;
15102;SDS011;7652;53.584;9.998;2023-05-07T06:58:05;6.73;;;5.33;;
15102;SDS011;7652;53.584;9.998;2023-05-07T07:01:28;5.93;;;5.30;;
15102;SDS011;7652;53.584;9.998;2023-05-07T07:04:49;6.60;;;5.80;;
15102;SDS011;7652;53.584;9.998;2023-05-07T07:08:11;6.47;;;5.00;;
15102;SDS011;7652;53.584;9.998;2023-05-07T07:11:32;7.40;;;5.17;;
15102;SDS011;7652;53.584;9.998;2023-05-07T07:14:54;6.03;;;5.40;;
15102;SDS011;7652;53.584;9.998;2023-05-07T07:18:16;7.83;;;5.93;;
15102;SDS011;7652;53.584;9.998;2023-05-07T07:21:37;5.80;;;4.77;;
15102;SDS011;7652;53.584;9.998;2023-05-07T07:24:59;7.57;;;5.40;;
15102;SDS011;7652;53.584;9.998;2023-05-07T07:28:20;5.83;;;5.07;;
15102;SDS011;7652;53.584;9.998;2023-05-07T07:31:42;5.30;;;4.70;;
15102;SDS011;7652;53.584;9.998;2023-05-07T07:35:06;8.27;;;5.33;;
15102;SDS011;7652;53.584;9.998;2023-05-07T07:38:28;5.60;;;5.00;;
15102;SDS011;7652;53.584;9.998;2023-05-07T07:41:49;5.17;;;4.67;;
15102;SDS011;7652;53.584;9.998;2023-05-07T07:45:11;5.53;;;5.00;;
15102;SDS011;7652;53.584;9.998;2023-05-07T07:48:33;5.63;;;4.97;;
15102;SDS011;7652;53.584;9.998;2023-05-07T07:51:56;6.27;;;4.60;;
15102;SDS011;7652;53.584;9.998;2023-05-07T07:55:19;4.87;;;4.40;;
15102;SDS011;7652;53.584;9.998;2023-05-07T07:58:42;5.53;;;5.00;;
15102;SDS011;7652;53.584;9.998;2023-05-07T08:02:04;5.23;;;4.73;;
15102;SDS011;7652;53.584;9.998;2023-05-07T08:05:26;5.33;;;4.50;;
15102;SDS011;7652;53.584;9.998;2023-05-07T08:08:49;6.20;;;4.83;;
15102;SDS011;7652;53.584;9.998;2023-05-07T08:12:11;6.87;;;4.47;;
15102;SDS011;7652;53.584;9.998;2023-05-07T08:15:33;4.87;;;4.37;;
15102;SDS011;7652;53.584;9.998;2023-05-07T08:18:54;5.10;;;4.60;;
15102;SDS011;7652;53.584;9.998;2023-05-07T08:22:15;5.07;;;4.57;;
15102;SDS011;7652;53.584;9.998;2023-05-07T08:25:39;4.83;;;4.40;;
15102;SDS011;7652;53.584;9.998;2023-05-07T08:29:02;5.33;;;4.57;;
15102;SDS011;7652;53.584;9.998;2023-05-07T08:32:23;4.97;;;4.47;;
15102;SDS011;7652;53.584;9.998;2023-05-07T08:35:45;5.60;;;4.57;;
15102;SDS011;7652;53.584;9.998;2023-05-07T08:39:07;6.97;;;4.60;;
15102;SDS011;7652;53.584;9.998;2023-05-07T08:42:29;5.37;;;4.60;;
15102;SDS011;7652;53.584;9.998;2023-05-07T08:45:54;5.20;;;4.63;;
15102;SDS011;7652;53.584;9.998;2023-05-07T08:49:18;7.97;;;5.10;;
15102;SDS011;7652;53.584;9.998;2023-05-07T08:52:40;5.37;;;4.70;;
15102;SDS011;7652;53.584;9.998;2023-05-07T08:56:02;7.90;;;5.40;;
15102;SDS011;7652;53.584;9.998;2023-05-07T08:59:25;5.33;;;4.60;;
15102;SDS011;7652;53.584;9.998;2023-05-07T09:02:46;5.40;;;4.90;;
15102;SDS011;7652;53.584;9.998;2023-05-07T09:06:08;6.17;;;4.67;;
15102;SDS011;7652;53.584;9.998;2023-05-07T09:09:29;7.83;;;4.93;;
15102;SDS011;7652;53.584;9.998;2023-05-07T09:12:52;4.80;;;4.33;;
15102;SDS011;7652;53.584;9.998;2023-05-07T09:16:15;4.40;;;4.00;;
15102;SDS011;7652;53.584;9.998;2023-05-07T09:19:36;5.60;;;4.43;;
15102;SDS011;7652;53.584;9.998;2023-05-07T09:22:58;4.70;;;4.17;;
15102;SDS011;7652;53.584;9.998;2023-05-07T09:26:20;4.30;;;3.90;;
15102;SDS011;7652;53.584;9.998;2023-05-07T09:29:43;4.97;;;4.47;;
15102;SDS011;7652;53.584;9.998;2023-05-07T09:33:05;5.10;;;3.80;;
15102;SDS011;7652;53.584;9.998;2023-05-07T09:36:27;5.57;;;4.20;;
15102;SDS011;7652;53.584;9.998;2023-05-07T09:39:49;4.53;;;4.13;;
15102;SDS011;7652;53.584;9.998;2023-05-07T09:43:12;4.87;;;4.37;;
15102;SDS011;7652;53.584;9.998;2023-05-07T09:46:34;4.43;;;4.03;;
15102;SDS011;7652;53.584;9.998;2023-05-07T09:50:00;5.40;;;3.93;;
15102;SDS011;7652;53.584;9.998;2023-05-07T09:53:26;3.90;;;3.60;;
15102;SDS011;7652;53.584;9.998;2023-05-07T09:56:49;4.20;;;3.80;;
15102;SDS011;7652;53.584;9.998;2023-05-07T10:00:12;7.40;;;4.23;;
15102;SDS011;7652;53.584;9.998;2023-05-07T10:03:35;5.07;;;3.70;;
15102;SDS011;7652;53.584;9.998;2023-05-07T10:06:59;3.60;;;3.30;;
15102;SDS011;7652;53.584;9.998;2023-05-07T10:10:21;4.67;;;4.27;;
15102;SDS011;7652;53.584;9.998;2023-05-07T10:13:44;4.20;;;3.80;;
15102;SDS011;7652;53.584;9.998;2023-05-07T10:17:08;4.73;;;4.33;;
15102;SDS011;7652;53.584;9.998;2023-05-07T10:20:32;5.30;;;4.30;;
15102;SDS011;7652;53.584;9.998;2023-05-07T10:23:57;4.73;;;3.90;;
15102;SDS011;7652;53.584;9.998;2023-05-07T10:27:20;3.97;;;3.67;;
15102;SDS011;7652;53.584;9.998;2023-05-07T10:30:47;4.87;;;4.40;;
15102;SDS011;7652;53.584;9.998;2023-05-07T10:34:21;4.80;;;4.23;;
15102;SDS011;7652;53.584;9.998;2023-05-07T10:37:49;4.87;;;3.90;;
15102;SDS011;7652;53.584;9.998;2023-05-07T10:41:12;3.93;;;3.60;;
15102;SDS011;7652;53.584;9.998;2023-05-07T10:44:35;6.30;;;3.80;;
15102;SDS011;7652;53.584;9.998;2023-05-07T10:48:06;5.53;;;4.40;;
15102;SDS011;7652;53.584;9.998;2023-05-07T10:52:00;4.20;;;3.90;;
15102;SDS011;7652;53.584;9.998;2023-05-07T10:55:32;5.73;;;3.63;;
15102;SDS011;7652;53.584;9.998;2023-05-07T10:58:55;4.10;;;3.70;;
15102;SDS011;7652;53.584;9.998;2023-05-07T11:02:16;4.27;;;3.87;;
15102;SDS011;7652;53.584;9.998;2023-05-07T11:05:38;4.20;;;3.00;;
15102;SDS011;7652;53.584;9.998;2023-05-07T11:09:00;4.93;;;3.73;;
15102;SDS011;7652;53.584;9.998;2023-05-07T11:16:21;3.13;;;2.83;;
15102;SDS011;7652;53.584;9.998;2023-05-07T11:19:49;3.37;;;3.07;;
15102;SDS011;7652;53.584;9.998;2023-05-07T11:27:07;3.10;;;2.90;;
15102;SDS011;7652;53.584;9.998;2023-05-07T11:30:29;3.33;;;3.03;;
15102;SDS011;7652;53.584;9.998;2023-05-07T11:33:53;3.80;;;3.20;;
15102;SDS011;7652;53.584;9.998;2023-05-07T11:37:16;4.80;;;3.13;;
15102;SDS011;7652;53.584;9.998;2023-05-07T11:40:48;3.33;;;3.03;;
15102;SDS011;7652;53.584;9.998;2023-05-07T11:44:10;3.37;;;2.87;;
15102;SDS011;7652;53.584;9.998;2023-05-07T11:47:31;2.90;;;2.70;;
15102;SDS011;7652;53.584;9.998;2023-05-07T11:50:59;3.83;;;3.20;;
15102;SDS011;7652;53.584;9.998;2023-05-07T11:54:21;3.07;;;2.87;;
15102;SDS011;7652;53.584;9.998;2023-05-07T11:57:43;4.03;;;3.00;;
15102;SDS011;7652;53.584;9.998;2023-05-07T12:01:07;2.83;;;2.57;;
15102;SDS011;7652;53.584;9.998;2023-05-07T12:04:29;3.67;;;2.70;;
15102;SDS011;7652;53.584;9.998;2023-05-07T12:07:56;2.80;;;2.60;;
15102;SDS011;7652;53.584;9.998;2023-05-07T12:11:21;2.30;;;2.20;;
15102;SDS011;7652;53.584;9.998;2023-05-07T12:14:45;2.93;;;2.73;;
15102;SDS011;7652;53.584;9.998;2023-05-07T12:18:07;4.03;;;2.57;;
15102;SDS011;7652;53.584;9.998;2023-05-07T12:21:29;2.50;;;2.30;;
15102;SDS011;7652;53.584;9.998;2023-05-07T12:24:57;3.13;;;2.50;;
15102;SDS011;7652;53.584;9.998;2023-05-07T12:28:19;2.50;;;2.40;;
15102;SDS011;7652;53.584;9.998;2023-05-07T12:31:41;2.70;;;2.17;;
15102;SDS011;7652;53.584;9.998;2023-05-07T12:35:03;2.20;;;2.00;;
15102;SDS011;7652;53.584;9.998;2023-05-07T12:38:27;2.53;;;2.33;;
15102;SDS011;7652;53.584;9.998;2023-05-07T12:41:59;3.03;;;2.13;;
15102;SDS011;7652;53.584;9.998;2023-05-07T12:45:20;2.23;;;2.03;;
15102;SDS011;7652;53.584;9.998;2023-05-07T12:48:43;3.87;;;2.27;;
15102;SDS011;7652;53.584;9.998;2023-05-07T12:52:06;2.33;;;2.13;;
15102;SDS011;7652;53.584;9.998;2023-05-07T12:55:27;2.50;;;2.27;;
15102;SDS011;7652;53.584;9.998;2023-05-07T12:58:58;2.10;;;2.00;;
15102;SDS011;7652;53.584;9.998;2023-05-07T13:02:19;3.07;;;1.90;;
15102;SDS011;7652;53.584;9.998;2023-05-07T13:05:41;3.67;;;2.17;;
15102;SDS011;7652;53.584;9.998;2023-05-07T13:09:02;2.20;;;2.00;;
15102;SDS011;7652;53.584;9.998;2023-05-07T13:12:25;2.17;;;1.90;;
15102;SDS011;7652;53.584;9.998;2023-05-07T13:15:48;2.10;;;2.00;;
15102;SDS011;7652;53.584;9.998;2023-05-07T13:19:09;2.50;;;2.23;;
15102;SDS011;7652;53.584;9.998;2023-05-07T13:22:31;2.37;;;1.90;;
15102;SDS011;7652;53.584;9.998;2023-05-07T13:25:53;1.87;;;1.77;;
15102;SDS011;7652;53.584;9.998;2023-05-07T13:29:16;2.23;;;1.80;;
15102;SDS011;7652;53.584;9.998;2023-05-07T13:32:39;1.80;;;1.70;;
15102;SDS011;7652;53.584;9.998;2023-05-07T13:36:01;2.20;;;1.97;;
15102;SDS011;7652;53.584;9.998;2023-05-07T13:39:25;1.70;;;1.60;;
15102;SDS011;7652;53.584;9.998;2023-05-07T13:42:48;1.80;;;1.70;;
15102;SDS011;7652;53.584;9.998;2023-05-07T13:46:10;2.30;;;2.10;;
15102;SDS011;7652;53.584;9.998;2023-05-07T13:49:33;3.30;;;1.67;;
15102;SDS011;7652;53.584;9.998;2023-05-07T13:52:55;1.80;;;1.70;;
15102;SDS011;7652;53.584;9.998;2023-05-07T13:56:17;1.93;;;1.80;;
15102;SDS011;7652;53.584;9.998;2023-05-07T13:59:40;2.00;;;1.70;;
15102;SDS011;7652;53.584;9.998;2023-05-07T14:03:02;2.77;;;1.70;;
15102;SDS011;7652;53.584;9.998;2023-05-07T14:06:26;1.60;;;1.50;;
15102;SDS011;7652;53.584;9.998;2023-05-07T14:09:48;1.80;;;1.70;;
15102;SDS011;7652;53.584;9.998;2023-05-07T14:13:09;1.60;;;1.50;;
15102;SDS011;7652;53.584;9.998;2023-05-07T14:16:31;3.73;;;2.00;;
15102;SDS011;7652;53.584;9.998;2023-05-07T14:19:53;1.53;;;1.43;;
15102;SDS011;7652;53.584;9.998;2023-05-07T14:23:16;1.50;;;1.40;;
15102;SDS011;7652;53.584;9.998;2023-05-07T14:26:39;1.83;;;1.40;;
15102;SDS011;7652;53.584;9.998;2023-05-07T14:30:00;3.13;;;1.67;;
15102;SDS011;7652;53.584;9.998;2023-05-07T14:33:22;1.50;;;1.40;;
15102;SDS011;7652;53.584;9.998;2023-05-07T14:36:43;3.57;;;1.40;;
15102;SDS011;7652;53.584;9.998;2023-05-07T14:40:07;1.60;;;1.43;;
15102;SDS011;7652;53.584;9.998;2023-05-07T14:43:29;2.27;;;1.40;;
15102;SDS011;7652;53.584;9.998;2023-05-07T14:46:50;1.87;;;1.60;;
15102;SDS011;7652;53.584;9.998;2023-05-07T14:50:12;2.73;;;1.60;;
15102;SDS011;7652;53.584;9.998;2023-05-07T14:53:33;1.60;;;1.50;;
15102;SDS011;7652;53.584;9.998;2023-05-07T14:56:56;3.03;;;1.50;;
15102;SDS011;7652;53.584;9.998;2023-05-07T15:00:18;1.67;;;1.57;;
15102;SDS011;7652;53.584;9.998;2023-05-07T15:03:40;1.70;;;1.60;;
15102;SDS011;7652;53.584;9.998;2023-05-07T15:07:01;1.67;;;1.57;;
15102;SDS011;7652;53.584;9.998;2023-05-07T15:10:23;1.40;;;1.30;;
15102;SDS011;7652;53.584;9.998;2023-05-07T15:13:45;2.03;;;1.60;;
15102;SDS011;7652;53.584;9.998;2023-05-07T15:17:07;3.17;;;1.57;;
15102;SDS011;7652;53.584;9.998;2023-05-07T15:20:28;2.03;;;1.70;;
15102;SDS011;7652;53.584;9.998;2023-05-07T15:23:49;1.77;;;1.67;;
15102;SDS011;7652;53.584;9.998;2023-05-07T15:27:11;3.57;;;1.60;;
15102;SDS011;7652;53.584;9.998;2023-05-07T15:30:34;2.00;;;1.70;;
15102;SDS011;7652;53.584;9.998;2023-05-07T15:33:55;1.73;;;1.60;;
15102;SDS011;7652;53.584;9.998;2023-05-07T15:37:16;1.53;;;1.43;;
15102;SDS011;7652;53.584;9.998;2023-05-07T15:40:38;1.63;;;1.53;;
15102;SDS011;7652;53.584;9.998;2023-05-07T15:44:01;2.00;;;1.80;;
15102;SDS011;7652;53.584;9.998;2023-05-07T15:47:24;1.87;;;1.63;;
15102;SDS011;7652;53.584;9.998;2023-05-07T15:50:45;2.33;;;1.57;;
15102;SDS011;7652;53.584;9.998;2023-05-07T15:54:07;1.77;;;1.60;;
15102;SDS011;7652;53.584;9.998;2023-05-07T15:57:28;3.03;;;1.93;;
15102;SDS011;7652;53.584;9.998;2023-05-07T16:00:51;1.73;;;1.63;;
15102;SDS011;7652;53.584;9.998;2023-05-07T16:04:14;2.03;;;1.50;;
15102;SDS011;7652;53.584;9.998;2023-05-07T16:07:35;1.70;;;1.57;;
15102;SDS011;7652;53.584;9.998;2023-05-07T16:10:57;2.70;;;1.80;;
15102;SDS011;7652;53.584;9.998;2023-05-07T16:14:19;2.50;;;1.63;;
15102;SDS011;7652;53.584;9.998;2023-05-07T16:17:40;1.70;;;1.60;;
15102;SDS011;7652;53.584;9.998;2023-05-07T16:21:04;1.63;;;1.53;;
15102;SDS011;7652;53.584;9.998;2023-05-07T16:24:26;1.83;;;1.70;;
15102;SDS011;7652;53.584;9.998;2023-05-07T16:27:47;1.90;;;1.60;;
15102;SDS011;7652;53.584;9.998;2023-05-07T16:31:09;2.37;;;1.47;;
15102;SDS011;7652;53.584;9.998;2023-05-07T16:34:30;2.93;;;1.80;;
15102;SDS011;7652;53.584;9.998;2023-05-07T16:37:53;2.17;;;1.80;;
15102;SDS011;7652;53.584;9.998;2023-05-07T16:41:14;2.13;;;1.63;;
15102;SDS011;7652;53.584;9.998;2023-05-07T16:44:36;2.20;;;2.00;;
15102;SDS011;7652;53.584;9.998;2023-05-07T16:47:58;1.60;;;1.50;;
15102;SDS011;7652;53.584;9.998;2023-05-07T16:51:19;1.90;;;1.80;;
15102;SDS011;7652;53.584;9.998;2023-05-07T16:54:42;1.80;;;1.50;;
15102;SDS011;7652;53.584;9.998;2023-05-07T16:58:04;1.97;;;1.87;;
15102;SDS011;7652;53.584;9.998;2023-05-07T17:01:26;2.40;;;1.70;;
15102;SDS011;7652;53.584;9.998;2023-05-07T17:04:51;3.20;;;1.90;;
15102;SDS011;7652;53.584;9.998;2023-05-07T17:08:12;2.03;;;1.80;;
15102;SDS011;7652;53.584;9.998;2023-05-07T17:11:36;1.67;;;1.57;;
15102;SDS011;7652;53.584;9.998;2023-05-07T17:14:57;1.87;;;1.77;;
15102;SDS011;7652;53.584;9.998;2023-05-07T17:18:18;2.43;;;1.40;;
15102;SDS011;7652;53.584;9.998;2023-05-07T17:21:40;1.90;;;1.70;;
15102;SDS011;7652;53.584;9.998;2023-05-07T17:25:01;3.13;;;1.60;;
15102;SDS011;7652;53.584;9.998;2023-05-07T17:28:24;1.73;;;1.60;;
15102;SDS011;7652;53.584;9.998;2023-05-07T17:31:46;2.60;;;1.60;;
15102;SDS011;7652;53.584;9.998;2023-05-07T17:35:07;1.70;;;1.60;;
15102;SDS011;7652;53.584;9.998;2023-05-07T17:38:29;1.60;;;1.43;;
15102;SDS011;7652;53.584;9.998;2023-05-07T17:41:50;1.70;;;1.60;;
15102;SDS011;7652;53.584;9.998;2023-05-07T17:45:14;3.23;;;2.00;;
15102;SDS011;7652;53.584;9.998;2023-05-07T17:48:36;1.70;;;1.60;;
15102;SDS011;7652;53.584;9.998;2023-05-07T17:51:57;2.33;;;1.80;;
15102;SDS011;7652;53.584;9.998;2023-05-07T17:55:19;2.03;;;1.80;;
15102;SDS011;7652;53.584;9.998;2023-05-07T17:58:40;2.37;;;1.70;;
15102;SDS011;7652;53.584;9.998;2023-05-07T18:02:19;2.13;;;1.90;;
15102;SDS011;7652;53.584;9.998;2023-05-07T18:05:40;1.90;;;1.63;;
15102;SDS011;7652;53.584;9.998;2023-05-07T18:09:02;1.83;;;1.60;;
15102;SDS011;7652;53.584;9.998;2023-05-07T18:12:24;1.70;;;1.60;;
15102;SDS011;7652;53.584;9.998;2023-05-07T18:15:46;1.60;;;1.50;;
15102;SDS011;7652;53.584;9.998;2023-05-07T18:19:09;2.37;;;1.90;;
15102;SDS011;7652;53.584;9.998;2023-05-07T18:22:31;2.73;;;1.50;;
15102;SDS011;7652;53.584;9.998;2023-05-07T18:25:52;2.03;;;1.70;;
15102;SDS011;7652;53.584;9.998;2023-05-07T18:29:14;2.37;;;2.00;;
15102;SDS011;7652;53.584;9.998;2023-05-07T18:32:35;2.00;;;1.80;;
15102;SDS011;7652;53.584;9.998;2023-05-07T18:35:58;3.93;;;2.00;;
15102;SDS011;7652;53.584;9.998;2023-05-07T18:39:20;3.67;;;2.03;;
15102;SDS011;7652;53.584;9.998;2023-05-07T18:42:41;2.10;;;1.90;;
15102;SDS011;7652;53.584;9.998;2023-05-07T18:46:03;1.83;;;1.73;;
15102;SDS011;7652;53.584;9.998;2023-05-07T18:49:25;1.80;;;1.70;;
15102;SDS011;7652;53.584;9.998;2023-05-07T18:52:48;3.23;;;1.90;;
15102;SDS011;7652;53.584;9.998;2023-05-07T18:56:09;2.37;;;1.70;;
15102;SDS011;7652;53.584;9.998;2023-05-07T18:59:31;2.60;;;1.47;;
15102;SDS011;7652;53.584;9.998;2023-05-07T19:02:52;2.53;;;1.60;;
15102;SDS011;7652;53.584;9.998;2023-05-07T19:06:14;1.57;;;1.47;;
15102;SDS011;7652;53.584;9.998;2023-05-07T19:09:37;1.93;;;1.83;;
15102;SDS011;7652;53.584;9.998;2023-05-07T19:13:06;1.47;;;1.37;;
15102;SDS011;7652;53.584;9.998;2023-05-07T19:16:28;2.60;;;1.83;;
15102;SDS011;7652;53.584;9.998;2023-05-07T19:19:49;1.70;;;1.60;;
15102;SDS011;7652;53.584;9.998;2023-05-07T19:23:11;1.70;;;1.60;;
15102;SDS011;7652;53.584;9.998;2023-05-07T19:26:34;1.70;;;1.60;;
15102;SDS011;7652;53.584;9.998;2023-05-07T19:29:55;2.43;;;1.83;;
15102;SDS011;7652;53.584;9.998;2023-05-07T19:33:17;2.20;;;2.00;;
15102;SDS011;7652;53.584;9.998;2023-05-07T19:36:38;3.40;;;1.77;;
15102;SDS011;7652;53.584;9.998;2023-05-07T19:40:00;1.87;;;1.67;;
15102;SDS011;7652;53.584;9.998;2023-05-07T19:43:25;3.20;;;1.83;;
15102;SDS011;7652;53.584;9.998;2023-05-07T19:46:46;3.50;;;2.00;;
15102;SDS011;7652;53.584;9.998;2023-05-07T19:50:08;2.13;;;1.93;;
15102;SDS011;7652;53.584;9.998;2023-05-07T19:53:30;2.17;;;1.97;;
15102;SDS011;7652;53.584;9.998;2023-05-07T19:56:51;1.80;;;1.70;;
15102;SDS011;7652;53.584;9.998;2023-05-07T20:00:14;2.00;;;1.90;;
15102;SDS011;7652;53.584;9.998;2023-05-07T20:03:36;2.10;;;1.90;;
15102;SDS011;7652;53.584;9.998;2023-05-07T20:06:57;2.33;;;1.90;;
15102;SDS011;7652;53.584;9.998;2023-05-07T20:10:19;1.83;;;1.63;;
15102;SDS011;7652;53.584;9.998;2023-05-07T20:13:41;1.80;;;1.70;;
15102;SDS011;7652;53.584;9.998;2023-05-07T20:17:04;2.17;;;1.97;;
15102;SDS011;7652;53.584;9.998;2023-05-07T20:20:26;1.73;;;1.60;;
15102;SDS011;7652;53.584;9.998;2023-05-07T20:23:47;2.50;;;2.00;;
15102;SDS011;7652;53.584;9.998;2023-05-07T20:27:09;3.47;;;2.20;;
15102;SDS011;7652;53.584;9.998;2023-05-07T20:30:31;2.10;;;1.90;;
15102;SDS011;7652;53.584;9.998;2023-05-07T20:33:54;1.80;;;1.70;;
15102;SDS011;7652;53.584;9.998;2023-05-07T20:37:15;3.07;;;2.00;;
15102;SDS011;7652;53.584;9.998;2023-05-07T20:40:37;2.23;;;2.03;;
15102;SDS011;7652;53.584;9.998;2023-05-07T20:43:58;3.83;;;1.80;;
15102;SDS011;7652;53.584;9.998;2023-05-07T20:47:20;3.10;;;1.87;;
15102;SDS011;7652;53.584;9.998;2023-05-07T20:50:43;1.93;;;1.73;;